createdAt,value
2023-10-28T00:01:44.446Z,88.57
2023-10-28T00:04:13.707Z,87.59
2023-10-28T00:06:42.098Z,87.35
2023-10-28T00:09:11.622Z,87.63
2023-10-28T00:11:39.567Z,87.72
2023-10-28T00:14:08.023Z,87.14
2023-10-28T00:16:36.600Z,87.48
2023-10-28T00:19:04.730Z,87.33
2023-10-28T00:21:34.019Z,87.72
2023-10-28T00:24:03.162Z,87.60
2023-10-28T00:26:30.929Z,87.77
2023-10-28T00:28:59.757Z,88.43
2023-10-28T00:31:29.755Z,88.08
2023-10-28T00:33:57.912Z,88.49
2023-10-28T00:36:25.750Z,88.33
2023-10-28T00:38:55.593Z,87.84
2023-10-28T00:41:23.700Z,87.49
2023-10-28T00:43:51.455Z,87.75
2023-10-28T00:46:20.237Z,87.46
2023-10-28T00:48:49.401Z,87.40
2023-10-28T00:51:17.234Z,87.31
2023-10-28T00:53:45.429Z,86.55
2023-10-28T00:56:14.926Z,86.62
2023-10-28T00:58:44.630Z,86.78
2023-10-28T01:01:15.306Z,86.47
2023-10-28T01:03:43.178Z,86.65
2023-10-28T01:06:11.960Z,86.61
2023-10-28T01:08:39.889Z,86.14
2023-10-28T01:11:08.058Z,85.75
2023-10-28T01:13:37.268Z,84.96
2023-10-28T01:16:09.387Z,84.60
2023-10-28T01:18:37.597Z,84.36
2023-10-28T01:21:12.451Z,84.21
2023-10-28T01:23:41.393Z,83.94
2023-10-28T01:26:09.305Z,83.54
2023-10-28T01:28:37.853Z,83.55
2023-10-28T01:31:06.093Z,84.07
2023-10-28T01:33:34.223Z,84.04
2023-10-28T01:36:02.678Z,83.99
2023-10-28T01:38:32.128Z,84.35
2023-10-28T01:40:59.942Z,84.61
2023-10-28T01:43:28.303Z,84.35
2023-10-28T01:45:56.148Z,84.20
2023-10-28T01:48:24.294Z,84.73
2023-10-28T01:50:52.722Z,84.25
2023-10-28T01:53:20.589Z,84.93
2023-10-28T01:55:49.802Z,84.76
2023-10-28T01:58:18.911Z,84.57
2023-10-28T02:00:47.224Z,84.17
2023-10-28T02:03:14.973Z,84.10
2023-10-28T02:05:42.817Z,83.88
2023-10-28T02:08:10.696Z,83.72
2023-10-28T02:10:38.589Z,83.78
2023-10-28T02:13:07.698Z,84.15
2023-10-28T02:15:35.737Z,83.82
2023-10-28T02:18:04.865Z,84.16
2023-10-28T02:20:34.226Z,84.90
2023-10-28T02:23:01.974Z,84.47
2023-10-28T02:25:30.195Z,84.78
2023-10-28T02:27:58.010Z,84.86
2023-10-28T02:30:27.532Z,84.05
2023-10-28T02:32:56.363Z,84.50
2023-10-28T02:35:24.186Z,84.13
2023-10-28T02:37:51.915Z,83.75
2023-10-28T02:40:19.735Z,83.40
2023-10-28T02:42:47.453Z,83.53
2023-10-28T02:45:15.571Z,83.04
2023-10-28T02:47:44.697Z,82.24
2023-10-28T02:50:13.822Z,82.56
2023-10-28T02:52:41.623Z,82.89
2023-10-28T02:55:09.783Z,82.27
2023-10-28T02:57:37.474Z,81.86
2023-10-28T03:00:09.968Z,81.60
2023-10-28T03:02:37.841Z,81.54
2023-10-28T03:05:07.673Z,81.80
2023-10-28T03:07:35.933Z,81.43
2023-10-28T03:10:03.731Z,81.22
2023-10-28T03:12:31.612Z,80.93
2023-10-28T03:14:59.829Z,81.24
2023-10-28T03:17:27.660Z,81.20
2023-10-28T03:19:55.391Z,81.15
2023-10-28T03:22:25.430Z,81.85
2023-10-28T03:24:53.101Z,81.53
2023-10-28T03:27:20.948Z,82.37
2023-10-28T03:29:50.789Z,82.63
2023-10-28T03:32:18.803Z,82.04
2023-10-28T03:34:46.950Z,81.82
2023-10-28T03:37:14.875Z,82.87
2023-10-28T03:39:44.126Z,82.86
2023-10-28T03:42:12.688Z,82.45
2023-10-28T03:44:40.595Z,83.01
2023-10-28T03:47:08.888Z,83.08
2023-10-28T03:49:37.653Z,83.58
2023-10-28T03:52:06.182Z,83.21
2023-10-28T03:54:34.006Z,82.63
2023-10-28T03:57:03.156Z,82.20
2023-10-28T03:59:30.980Z,82.72
2023-10-28T04:01:59.976Z,82.79
2023-10-28T04:04:28.002Z,82.57
2023-10-28T04:06:56.397Z,82.71
2023-10-28T04:09:24.826Z,82.97
2023-10-28T04:11:52.556Z,82.91
2023-10-28T04:14:21.784Z,82.62
2023-10-28T04:16:49.509Z,82.44
2023-10-28T04:19:17.613Z,81.91
2023-10-28T04:21:45.298Z,82.86
2023-10-28T04:24:13.642Z,82.82
2023-10-28T04:26:41.350Z,82.42
2023-10-28T04:29:09.987Z,82.12
2023-10-28T04:31:40.455Z,82.13
2023-10-28T04:34:09.930Z,82.25
2023-10-28T04:36:37.774Z,82.69
2023-10-28T04:39:05.642Z,82.30
2023-10-28T04:41:33.392Z,82.35
2023-10-28T04:44:03.151Z,82.67
2023-10-28T04:46:31.315Z,82.21
2023-10-28T04:49:01.673Z,82.55
2023-10-28T04:51:29.393Z,82.38
2023-10-28T04:53:58.197Z,81.97
2023-10-28T04:56:25.900Z,81.97
2023-10-28T04:58:53.742Z,82.27
2023-10-28T05:01:22.300Z,81.88
2023-10-28T05:03:51.452Z,81.12
2023-10-28T05:06:21.188Z,80.92
2023-10-28T05:08:50.926Z,80.36
2023-10-28T05:11:18.869Z,80.07
2023-10-28T05:13:46.909Z,79.82
2023-10-28T05:16:15.005Z,79.78
2023-10-28T05:18:42.879Z,79.78
2023-10-28T05:21:12.045Z,79.95
2023-10-28T05:23:41.239Z,80.51
2023-10-28T05:26:09.338Z,80.94
2023-10-28T05:28:37.093Z,81.77
2023-10-28T05:31:05.465Z,82.57
2023-10-28T05:33:33.169Z,81.96
2023-10-28T05:36:00.947Z,82.82
2023-10-28T05:38:28.682Z,82.79
2023-10-28T05:40:57.874Z,83.03
2023-10-28T05:43:25.624Z,82.90
2023-10-28T05:45:53.625Z,83.29
2023-10-28T05:48:21.360Z,83.17
2023-10-28T05:50:49.931Z,82.73
2023-10-28T05:53:17.847Z,83.09
2023-10-28T05:55:45.774Z,82.66
2023-10-28T05:58:14.840Z,82.56
2023-10-28T06:00:43.028Z,82.43
2023-10-28T06:03:11.107Z,81.78
2023-10-28T06:05:38.952Z,81.69
2023-10-28T06:08:08.305Z,81.98
2023-10-28T06:10:36.180Z,82.25
2023-10-28T06:13:03.921Z,81.23
2023-10-28T06:15:33.141Z,81.04
2023-10-28T06:18:01.026Z,81.16
2023-10-28T06:20:28.900Z,80.88
2023-10-28T06:22:56.634Z,81.38
2023-10-28T06:25:25.461Z,80.46
2023-10-28T06:27:53.498Z,81.01
2023-10-28T06:30:22.111Z,80.85
2023-10-28T06:32:51.155Z,81.38
2023-10-28T06:35:20.177Z,81.90
2023-10-28T06:37:48.005Z,82.03
2023-10-28T06:40:15.839Z,82.45
2023-10-28T06:42:43.751Z,82.27
2023-10-28T06:45:12.072Z,82.01
2023-10-28T06:47:39.917Z,81.65
2023-10-28T06:50:10.128Z,81.46
2023-10-28T06:52:38.657Z,80.69
2023-10-28T06:55:07.138Z,80.48
2023-10-28T06:57:34.978Z,80.42
2023-10-28T07:00:02.698Z,80.63
2023-10-28T07:02:30.589Z,80.20
2023-10-28T07:04:58.356Z,80.24
2023-10-28T07:07:27.430Z,80.31
2023-10-28T07:09:55.146Z,79.71
2023-10-28T07:12:23.181Z,79.68
2023-10-28T07:14:50.888Z,79.74
2023-10-28T07:17:18.754Z,79.21
2023-10-28T07:19:46.667Z,80.02
2023-10-28T07:22:14.468Z,78.46
2023-10-28T07:24:43.930Z,78.47
2023-10-28T07:27:11.737Z,78.16
2023-10-28T07:29:39.513Z,77.88
2023-10-28T07:32:10.266Z,78.17
2023-10-28T07:34:42.153Z,77.39
2023-10-28T07:37:10.738Z,77.56
2023-10-28T07:39:39.994Z,77.10
2023-10-28T07:42:09.758Z,77.07
2023-10-28T07:44:39.007Z,77.38
2023-10-28T07:47:07.811Z,76.92
2023-10-28T07:49:35.733Z,76.08
2023-10-28T07:52:04.421Z,75.25
2023-10-28T07:54:32.277Z,73.90
2023-10-28T07:57:00.322Z,74.21
2023-10-28T07:59:29.363Z,74.64
2023-10-28T08:01:58.421Z,73.67
2023-10-28T08:04:26.550Z,73.05
2023-10-28T08:06:54.341Z,73.57
2023-10-28T08:09:23.459Z,73.74
2023-10-28T08:11:51.822Z,72.79
2023-10-28T08:14:19.713Z,72.08
2023-10-28T08:16:48.903Z,69.02
2023-10-28T08:19:16.672Z,67.74
2023-10-28T08:21:44.349Z,68.14
2023-10-28T08:24:13.360Z,69.42
2023-10-28T08:26:42.644Z,69.20
2023-10-28T08:29:12.877Z,67.67
2023-10-28T08:31:40.799Z,65.60
2023-10-28T08:34:09.830Z,65.17
2023-10-28T08:36:37.791Z,64.18
2023-10-28T08:39:06.538Z,62.93
2023-10-28T08:41:34.298Z,63.15
2023-10-28T08:44:05.566Z,62.56
2023-10-28T08:46:34.672Z,62.88
2023-10-28T08:49:05.416Z,61.21
2023-10-28T08:51:35.590Z,60.94
2023-10-28T08:54:05.576Z,63.16
2023-10-28T08:56:36.410Z,61.80
2023-10-28T08:59:04.149Z,59.96
2023-10-28T09:01:32.949Z,63.01
2023-10-28T09:04:05.812Z,63.52
2023-10-28T09:06:37.004Z,62.61
2023-10-28T09:09:13.439Z,61.80
2023-10-28T09:11:41.976Z,61.95
2023-10-28T09:14:09.913Z,61.16
2023-10-28T09:16:37.778Z,60.51
2023-10-28T09:19:09.422Z,59.78
2023-10-28T09:21:38.690Z,59.00
2023-10-28T09:24:07.184Z,59.46
2023-10-28T09:26:34.890Z,60.49
2023-10-28T09:29:02.637Z,57.87
2023-10-28T09:31:30.667Z,55.99
2023-10-28T09:33:59.601Z,54.87
2023-10-28T09:36:27.434Z,54.57
2023-10-28T09:38:57.908Z,54.23
2023-10-28T09:41:26.060Z,55.08
2023-10-28T09:43:55.522Z,54.50
2023-10-28T09:46:27.477Z,53.55
2023-10-28T09:49:00.616Z,54.96
2023-10-28T09:51:32.541Z,55.75
2023-10-28T09:54:07.557Z,56.08
2023-10-28T09:56:36.905Z,57.03
2023-10-28T09:59:14.179Z,56.97
2023-10-28T10:01:51.202Z,54.90
2023-10-28T10:04:31.759Z,53.52
2023-10-28T10:06:59.718Z,53.82
2023-10-28T10:09:29.349Z,52.55
2023-10-28T10:11:59.000Z,51.38
2023-10-28T10:14:32.885Z,51.87
2023-10-28T10:17:05.083Z,52.11
2023-10-28T10:19:34.889Z,54.80
2023-10-28T10:22:05.320Z,59.51
2023-10-28T10:24:34.984Z,58.42
2023-10-28T10:27:04.876Z,60.68
2023-10-28T10:29:43.060Z,60.81
2023-10-28T10:32:17.858Z,59.84
2023-10-28T10:34:46.686Z,59.67
2023-10-28T10:37:23.031Z,58.16
2023-10-28T10:39:52.192Z,56.98
2023-10-28T10:42:20.125Z,58.35
2023-10-28T10:44:48.498Z,57.34
2023-10-28T10:47:19.009Z,56.66
2023-10-28T10:49:49.688Z,56.22
2023-10-28T10:52:18.358Z,56.13
2023-10-28T10:54:46.021Z,56.03
2023-10-28T10:57:15.243Z,55.14
2023-10-28T10:59:42.989Z,59.60
2023-10-28T11:02:12.241Z,60.01
2023-10-28T11:04:40.609Z,60.17
2023-10-28T11:07:08.839Z,59.90
2023-10-28T11:09:39.066Z,60.20
2023-10-28T11:12:07.501Z,59.82
2023-10-28T11:14:36.781Z,59.64
2023-10-28T11:17:05.440Z,60.25
2023-10-28T11:19:33.307Z,59.43
2023-10-28T11:22:01.611Z,59.81
2023-10-28T11:24:29.734Z,60.71
2023-10-28T11:26:59.073Z,60.54
2023-10-28T11:29:26.920Z,60.06
2023-10-28T11:31:57.966Z,60.40
2023-10-28T11:34:26.578Z,60.47
2023-10-28T11:36:56.354Z,60.74
2023-10-28T11:39:24.531Z,59.88
2023-10-28T11:41:52.236Z,60.12
2023-10-28T11:44:20.042Z,59.15
2023-10-28T11:46:48.109Z,58.95
2023-10-28T11:49:17.308Z,59.62
2023-10-28T11:51:45.036Z,59.92
2023-10-28T11:54:12.752Z,59.46
2023-10-28T11:56:40.518Z,59.84
2023-10-28T11:59:08.688Z,61.28
2023-10-28T12:01:37.972Z,60.10
2023-10-28T12:04:08.502Z,56.63
2023-10-28T12:06:38.191Z,57.18
2023-10-28T12:09:06.666Z,57.13
2023-10-28T12:11:34.653Z,59.19
2023-10-28T12:14:02.551Z,57.73
2023-10-28T12:16:32.797Z,60.03
2023-10-28T12:19:00.569Z,59.68
2023-10-28T12:21:28.284Z,59.90
2023-10-28T12:23:57.369Z,60.73
2023-10-28T12:26:25.234Z,59.90
2023-10-28T12:28:53.965Z,60.09
2023-10-28T12:31:23.511Z,59.75
2023-10-28T12:33:51.262Z,59.72
2023-10-28T12:36:19.611Z,60.33
2023-10-28T12:38:47.276Z,60.08
2023-10-28T12:41:16.586Z,60.96
2023-10-28T12:43:44.284Z,57.86
2023-10-28T12:46:12.896Z,58.96
2023-10-28T12:48:40.753Z,57.93
2023-10-28T12:51:09.804Z,60.73
2023-10-28T12:53:37.673Z,58.12
2023-10-28T12:56:07.692Z,58.40
2023-10-28T12:58:36.899Z,58.24
2023-10-28T13:01:05.715Z,56.55
2023-10-28T13:03:33.537Z,55.98
2023-10-28T13:06:01.433Z,57.99
2023-10-28T13:08:29.261Z,55.93
2023-10-28T13:10:57.971Z,57.14
2023-10-28T13:13:26.410Z,57.39
2023-10-28T13:15:55.649Z,55.91
2023-10-28T13:18:23.557Z,57.68
2023-10-28T13:20:51.656Z,57.95
2023-10-28T13:23:19.469Z,58.46
2023-10-28T13:25:47.386Z,57.23
2023-10-28T13:28:15.290Z,57.72
2023-10-28T13:30:43.075Z,57.68
2023-10-28T13:33:13.065Z,60.06
2023-10-28T13:35:41.299Z,60.00
2023-10-28T13:38:09.242Z,59.16
2023-10-28T13:40:37.084Z,59.33
2023-10-28T13:43:05.156Z,61.24
2023-10-28T13:45:32.929Z,60.98
2023-10-28T13:48:01.164Z,61.36
2023-10-28T13:50:30.436Z,59.44
2023-10-28T13:52:58.336Z,60.34
2023-10-28T13:55:27.794Z,60.91
2023-10-28T13:57:55.641Z,60.42
2023-10-28T14:00:23.487Z,60.26
2023-10-28T14:02:53.105Z,62.17
2023-10-28T14:05:22.136Z,61.80
2023-10-28T14:07:51.383Z,60.85
2023-10-28T14:10:19.246Z,63.22
2023-10-28T14:12:47.526Z,63.38
2023-10-28T14:15:15.816Z,63.32
2023-10-28T14:17:43.683Z,64.56
2023-10-28T14:20:12.407Z,66.82
2023-10-28T14:22:40.765Z,67.50
2023-10-28T14:25:10.611Z,66.83
2023-10-28T14:27:38.313Z,66.74
2023-10-28T14:30:07.364Z,66.44
2023-10-28T14:32:36.717Z,66.26
2023-10-28T14:35:06.704Z,65.82
2023-10-28T14:37:34.506Z,61.73
2023-10-28T14:40:02.186Z,61.51
2023-10-28T14:42:31.243Z,61.56
2023-10-28T14:44:59.074Z,61.12
2023-10-28T14:47:26.984Z,61.17
2023-10-28T14:49:54.948Z,60.99
2023-10-28T14:52:22.600Z,61.03
2023-10-28T14:54:50.290Z,59.88
2023-10-28T14:57:18.137Z,60.03
2023-10-28T14:59:49.065Z,60.11
2023-10-28T15:02:18.037Z,59.83
2023-10-28T15:04:48.828Z,59.91
2023-10-28T15:07:17.591Z,60.15
2023-10-28T15:09:46.977Z,59.37
2023-10-28T15:12:15.089Z,59.10
2023-10-28T15:14:43.470Z,59.38
2023-10-28T15:17:13.001Z,59.40
2023-10-28T15:19:41.204Z,59.76
2023-10-28T15:22:09.047Z,60.30
2023-10-28T15:24:36.793Z,60.92
2023-10-28T15:27:06.481Z,61.14
2023-10-28T15:29:34.580Z,61.66
2023-10-28T15:32:02.652Z,61.55
2023-10-28T15:34:34.299Z,62.06
2023-10-28T15:37:02.001Z,62.28
2023-10-28T15:39:30.067Z,62.61
2023-10-28T15:41:58.036Z,62.88
2023-10-28T15:44:25.733Z,63.18
2023-10-28T15:46:53.927Z,63.68
2023-10-28T15:49:21.630Z,63.90
2023-10-28T15:51:50.775Z,64.09
2023-10-28T15:54:18.817Z,65.19
2023-10-28T15:56:46.677Z,65.37
2023-10-28T15:59:14.396Z,65.44
2023-10-28T16:01:42.657Z,65.04
2023-10-28T16:04:12.385Z,64.82
2023-10-28T16:06:44.724Z,64.40
2023-10-28T16:09:16.073Z,64.38
2023-10-28T16:11:44.311Z,64.14
2023-10-28T16:14:12.419Z,64.83
2023-10-28T16:16:40.112Z,64.68
2023-10-28T16:19:08.376Z,63.69
2023-10-28T16:21:36.893Z,63.29
2023-10-28T16:24:05.173Z,63.17
2023-10-28T16:26:34.742Z,64.07
2023-10-28T16:29:02.641Z,64.62
2023-10-28T16:31:33.085Z,64.61
2023-10-28T16:34:00.918Z,65.20
2023-10-28T16:36:28.714Z,65.34
2023-10-28T16:38:56.798Z,65.22
2023-10-28T16:41:24.641Z,65.44
2023-10-28T16:43:53.716Z,65.80
2023-10-28T16:46:23.431Z,66.13
2023-10-28T16:48:51.530Z,66.05
2023-10-28T16:51:20.137Z,66.06
2023-10-28T16:53:47.927Z,65.85
2023-10-28T16:56:17.405Z,65.81
2023-10-28T16:58:45.498Z,65.97
2023-10-28T17:01:14.595Z,66.04
2023-10-28T17:03:42.855Z,66.00
2023-10-28T17:06:10.634Z,65.69
2023-10-28T17:08:38.599Z,65.68
2023-10-28T17:11:07.773Z,66.22
2023-10-28T17:13:35.701Z,67.01
2023-10-28T17:16:04.809Z,67.67
2023-10-28T17:18:34.078Z,69.81
2023-10-28T17:21:06.721Z,70.26
2023-10-28T17:23:35.001Z,70.37
2023-10-28T17:26:03.219Z,70.63
2023-10-28T17:28:31.002Z,68.85
2023-10-28T17:30:59.745Z,68.25
2023-10-28T17:33:27.431Z,67.95
2023-10-28T17:35:56.821Z,67.28
2023-10-28T17:38:28.499Z,66.40
2023-10-28T17:40:56.473Z,65.68
2023-10-28T17:43:24.494Z,65.87
2023-10-28T17:45:52.389Z,66.87
2023-10-28T17:48:20.249Z,68.21
2023-10-28T17:50:48.092Z,68.65
2023-10-28T17:53:17.779Z,69.37
2023-10-28T17:55:45.595Z,69.17
2023-10-28T17:58:13.342Z,67.95
2023-10-28T18:00:41.683Z,68.13
2023-10-28T18:03:10.751Z,70.42
2023-10-28T18:05:38.829Z,72.68
2023-10-28T18:08:06.628Z,71.95
2023-10-28T18:10:36.207Z,71.95
2023-10-28T18:13:04.850Z,73.63
2023-10-28T18:15:33.390Z,73.01
2023-10-28T18:18:01.654Z,73.04
2023-10-28T18:20:29.549Z,72.28
2023-10-28T18:22:57.532Z,73.87
2023-10-28T18:25:25.215Z,74.32
2023-10-28T18:27:54.382Z,74.17
2023-10-28T18:30:22.072Z,73.97
2023-10-28T18:32:50.131Z,71.72
2023-10-28T18:35:18.539Z,72.16
2023-10-28T18:37:46.482Z,72.17
2023-10-28T18:40:16.078Z,73.01
2023-10-28T18:42:44.368Z,73.93
2023-10-28T18:45:14.258Z,73.06
2023-10-28T18:47:42.489Z,69.47
2023-10-28T18:50:11.829Z,69.33
2023-10-28T18:52:40.875Z,69.35
2023-10-28T18:55:09.397Z,69.50
2023-10-28T18:57:37.284Z,69.31
2023-10-28T19:00:09.543Z,70.02
2023-10-28T19:02:39.344Z,70.46
2023-10-28T19:05:07.609Z,71.21
2023-10-28T19:07:35.353Z,71.21
2023-10-28T19:10:07.857Z,70.82
2023-10-28T19:12:36.178Z,70.41
2023-10-28T19:15:04.293Z,70.49
2023-10-28T19:17:32.192Z,70.36
2023-10-28T19:20:01.254Z,71.17
2023-10-28T19:22:29.098Z,72.42
2023-10-28T19:24:56.894Z,72.47
2023-10-28T19:27:24.570Z,73.24
2023-10-28T19:29:56.194Z,73.33
2023-10-28T19:32:24.040Z,73.61
2023-10-28T19:34:53.838Z,72.35
2023-10-28T19:37:22.856Z,72.54
2023-10-28T19:39:51.724Z,72.74
2023-10-28T19:42:19.391Z,73.75
2023-10-28T19:44:47.865Z,73.53
2023-10-28T19:47:15.739Z,73.29
2023-10-28T19:49:43.687Z,72.96
2023-10-28T19:52:11.645Z,72.80
2023-10-28T19:54:41.066Z,72.09
2023-10-28T19:57:09.211Z,71.90
2023-10-28T19:59:37.271Z,72.42
2023-10-28T20:02:05.417Z,73.54
2023-10-28T20:04:33.521Z,74.05
2023-10-28T20:07:01.325Z,73.99
2023-10-28T20:09:29.353Z,74.15
2023-10-28T20:12:00.715Z,74.52
2023-10-28T20:14:28.765Z,75.34
2023-10-28T20:16:56.909Z,75.22
2023-10-28T20:19:24.836Z,75.57
2023-10-28T20:21:53.965Z,75.97
2023-10-28T20:24:21.873Z,76.27
2023-10-28T20:26:49.665Z,77.25
2023-10-28T20:29:18.766Z,78.27
2023-10-28T20:31:46.662Z,78.32
2023-10-28T20:34:15.457Z,77.85
2023-10-28T20:36:43.298Z,78.08
2023-10-28T20:39:11.089Z,78.08
2023-10-28T20:41:39.025Z,78.02
2023-10-28T20:44:06.992Z,77.97
2023-10-28T20:46:36.593Z,78.45
2023-10-28T20:49:05.822Z,78.37
2023-10-28T20:51:34.439Z,78.15
2023-10-28T20:54:03.325Z,78.55
2023-10-28T20:56:31.216Z,78.73
2023-10-28T20:58:59.033Z,78.60
2023-10-28T21:01:27.764Z,78.44
2023-10-28T21:03:59.367Z,78.49
2023-10-28T21:06:29.112Z,79.12
2023-10-28T21:08:57.881Z,79.12
2023-10-28T21:11:26.061Z,79.32
2023-10-28T21:13:53.890Z,79.34
2023-10-28T21:16:21.807Z,79.24
2023-10-28T21:18:49.912Z,79.08
2023-10-28T21:21:19.189Z,79.40
2023-10-28T21:23:47.214Z,79.54
2023-10-28T21:26:15.059Z,79.36
2023-10-28T21:28:43.022Z,79.22
2023-10-28T21:31:12.688Z,79.21
2023-10-28T21:33:41.007Z,79.44
2023-10-28T21:36:10.231Z,79.71
2023-10-28T21:38:39.982Z,80.11
2023-10-28T21:41:08.360Z,80.30
2023-10-28T21:43:36.491Z,80.39
2023-10-28T21:46:05.044Z,79.82
2023-10-28T21:48:33.044Z,80.33
2023-10-28T21:51:00.744Z,80.06
2023-10-28T21:53:28.792Z,80.53
2023-10-28T21:56:01.081Z,80.43
2023-10-28T21:58:29.169Z,80.64
2023-10-28T22:00:57.347Z,80.19
2023-10-28T22:03:26.542Z,80.49
2023-10-28T22:05:54.581Z,80.67
2023-10-28T22:08:23.022Z,80.63
2023-10-28T22:10:51.250Z,80.72
2023-10-28T22:13:21.328Z,80.89
2023-10-28T22:15:49.167Z,80.94
2023-10-28T22:18:17.129Z,81.29
2023-10-28T22:20:46.408Z,81.01
2023-10-28T22:23:14.393Z,81.35
2023-10-28T22:25:43.926Z,81.65
2023-10-28T22:28:16.107Z,81.69
2023-10-28T22:30:46.967Z,81.69
2023-10-28T22:33:15.160Z,81.67
2023-10-28T22:35:44.110Z,82.02
2023-10-28T22:38:14.374Z,81.98
2023-10-28T22:40:43.428Z,82.13
2023-10-28T22:43:11.785Z,82.00
2023-10-28T22:45:39.915Z,82.24
2023-10-28T22:48:09.774Z,81.92
2023-10-28T22:50:38.591Z,82.14
2023-10-28T22:53:06.464Z,82.47
2023-10-28T22:55:34.484Z,82.43
2023-10-28T22:58:02.164Z,82.16
2023-10-28T23:00:31.704Z,82.19
2023-10-28T23:02:59.468Z,81.70
2023-10-28T23:05:28.829Z,81.71
2023-10-28T23:07:57.923Z,81.60
2023-10-28T23:10:25.820Z,81.80
2023-10-28T23:12:55.428Z,81.82
2023-10-28T23:15:23.992Z,81.60
2023-10-28T23:17:51.935Z,81.68
2023-10-28T23:20:20.389Z,82.15
2023-10-28T23:22:49.449Z,82.23
2023-10-28T23:25:17.164Z,82.53
2023-10-28T23:27:45.130Z,82.62
2023-10-28T23:30:13.832Z,82.26
2023-10-28T23:32:41.903Z,82.18
2023-10-28T23:35:10.473Z,81.98
2023-10-28T23:37:38.346Z,81.86
2023-10-28T23:40:09.193Z,82.39
2023-10-28T23:42:37.057Z,82.87
2023-10-28T23:45:08.592Z,82.62
2023-10-28T23:47:37.039Z,82.72
2023-10-28T23:50:05.639Z,82.89
2023-10-28T23:52:33.522Z,82.55
2023-10-28T23:55:02.287Z,82.95
2023-10-28T23:57:31.489Z,83.10
2023-10-28T23:59:59.212Z,83.53
